Terminal Aerodrome Forecast
Issued by NWS

Home | Current Version | Previous Version | Text Only | Print | Product List | Glossary On
Versions: 1 2 3 4 5 6 7 8 9 10 11 12 13 14 15 16 17 18 19 20 21 22 23 24
000
FTUS46 KOTX 280540
TAFPUW
TAF
KPUW 280540Z 2806/2906 VRB05KT P6SM VCTS SCT060 BKN080CB
      TEMPO 2806/2808 -TSRA BKN050 OVC080CB
     FM280900 24012G20KT P6SM -SHRA VCTS SCT020 BKN040 OVC080CB
     FM281100 24020G30KT P6SM SHRA BKN018 OVC030
     FM281300 25025G35KT P6SM BKN020
     FM282000 25022G30KT P6SM BKN035
     FM290200 24005KT P6SM SKC=

USA.gov is the U.S. government's official web portal to all federal, state and local government web resources and services.